Time;durP1;ratioP1;P1;durP2;ratioP2;P2;SDS_P1;SDS_P2;PMS_P1;PMS_P2;Temp;Humidity;BMP_temperature;BMP_pressure;BME280_temperature;BME280_humidity;BME280_pressure;Samples;Min_cycle;Max_cycle;Signal;HPM_P1;HPM_P2
2023/05/16 00:03:56;;;;;;;10.40;9.40;;;;;;;10.25;82.97;98208.85;225616;1282;24257;-72
2023/05/16 00:09:43;;;;;;;11.80;10.60;;;;;;;10.28;82.92;98219.46;225610;1282;24260;-72
2023/05/16 00:15:06;;;;;;;11.80;10.50;;;;;;;10.31;83.41;98221.75;225633;1282;22548;-72
2023/05/16 00:20:52;;;;;;;;;;;;;;;;;;;;;
2023/05/16 00:26:15;;;;;;;14.00;11.90;;;;;;;10.39;83.54;98213.68;225671;1282;22653;-72
2023/05/16 00:31:36;;;;;;;17.30;15.50;;;;;;;10.43;83.36;98206.73;225625;1278;25336;-73
2023/05/16 00:37:01;;;;;;;18.60;16.50;;;;;;;10.51;83.82;98209.44;225648;1282;25237;-73
2023/05/16 00:42:25;;;;;;;18.70;16.00;;;;;;;10.57;83.44;98210.73;225607;1277;22604;-73
2023/05/16 00:47:56;;;;;;;17.90;16.10;;;;;;;10.60;83.68;98216.67;225684;1282;22551;-73
2023/05/16 00:53:26;;;;;;;19.50;17.50;;;;;;;10.62;83.74;98211.20;225643;1278;22557;-73
2023/05/16 00:58:48;;;;;;;19.00;17.10;;;;;;;10.64;83.79;98204.86;225579;1282;22559;-72
2023/05/16 01:03:59;;;;;;;20.80;18.40;;;;;;;10.66;83.62;98196.20;225700;1259;22543;-72
2023/05/16 01:09:19;;;;;;;18.70;16.30;;;;;;;10.63;83.54;98198.15;225627;1278;22657;-72
2023/05/16 01:15:07;;;;;;;21.80;18.10;;;;;;;10.53;83.58;98201.70;225552;1281;25034;-72
2023/05/16 01:21:20;;;;;;;18.80;16.80;;;;;;;10.41;83.85;98199.50;225635;1282;22606;-72
2023/05/16 01:27:00;;;;;;;;;;;;;;;;;;;;;
2023/05/16 01:32:16;;;;;;;16.30;14.50;;;;;;;10.20;84.29;98191.77;225584;1282;22528;-72
2023/05/16 01:37:37;;;;;;;17.30;14.20;;;;;;;10.13;84.04;98203.10;225604;1282;23294;-72
2023/05/16 01:42:53;;;;;;;18.20;15.30;;;;;;;10.07;84.31;98199.50;225597;1278;22543;-72
2023/05/16 01:48:20;;;;;;;15.20;13.50;;;;;;;10.02;84.39;98202.23;225561;1282;22559;-72
2023/05/16 01:53:37;;;;;;;14.60;12.50;;;;;;;9.97;84.59;98209.52;225509;1282;22540;-72
2023/05/16 01:58:57;;;;;;;15.40;13.80;;;;;;;9.92;84.80;98210.81;225648;1282;22551;-72
2023/05/16 02:04:14;;;;;;;17.70;14.60;;;;;;;9.88;85.11;98216.07;225538;1282;25354;-72
2023/05/16 02:09:35;;;;;;;17.00;15.20;;;;;;;9.81;84.84;98222.33;225592;1282;25226;-72
2023/05/16 02:14:55;;;;;;;16.80;14.50;;;;;;;9.74;85.04;98226.60;225593;1282;22550;-72
2023/05/16 02:20:05;;;;;;;16.10;14.30;;;;;;;9.66;84.89;98221.45;225631;1282;24228;-72
2023/05/16 02:25:11;;;;;;;14.30;12.10;;;;;;;9.58;85.14;98216.88;225618;1282;22554;-73
2023/05/16 02:31:09;;;;;;;14.50;11.70;;;;;;;9.50;84.97;98220.31;225641;1282;24258;-73
2023/05/16 02:36:46;;;;;;;14.40;11.80;;;;;;;9.43;85.24;98219.02;225636;1282;22526;-73
2023/05/16 02:42:10;;;;;;;14.80;11.60;;;;;;;9.37;85.24;98216.21;225589;1275;25944;-72
2023/05/16 02:47:49;;;;;;;16.20;13.90;;;;;;;9.33;85.00;98228.26;225576;1270;22548;-73
2023/05/16 02:53:27;;;;;;;;;;;;;;;;;;;;;
2023/05/16 02:58:41;;;;;;;17.20;12.70;;;;;;;9.22;85.71;98222.20;225527;1282;22564;-73
2023/05/16 03:04:11;;;;;;;16.80;14.10;;;;;;;9.19;85.82;98227.96;225566;1279;22582;-73
2023/05/16 03:09:33;;;;;;;18.20;14.30;;;;;;;9.19;85.67;98238.35;225595;1280;24258;-73
2023/05/16 03:14:50;;;;;;;16.10;13.70;;;;;;;9.21;85.94;98234.77;225532;1282;22581;-73
2023/05/16 03:20:28;;;;;;;15.00;13.30;;;;;;;9.26;86.04;98237.89;225577;1282;22536;-73
2023/05/16 03:31:55;;;;;;;15.50;13.00;;;;;;;9.49;86.00;98256.86;225532;1282;22568;-73
2023/05/16 03:37:16;;;;;;;15.40;11.50;;;;;;;9.71;86.14;98263.48;225567;1282;22544;-72
2023/05/16 03:43:12;;;;;;;14.50;12.80;;;;;;;9.85;85.59;98263.58;225587;1275;22528;-72
2023/05/16 03:48:34;;;;;;;13.80;12.20;;;;;;;9.89;85.56;98264.02;225554;1282;22554;-72
2023/05/16 03:53:52;;;;;;;14.30;11.80;;;;;;;9.99;85.73;98264.74;225550;1282;22550;-72
2023/05/16 03:59:21;;;;;;;13.50;11.70;;;;;;;10.17;85.70;98269.29;225530;1282;22565;-73
2023/05/16 04:04:31;;;;;;;14.30;11.90;;;;;;;10.35;85.46;98269.48;225597;1282;22550;-73
2023/05/16 04:10:05;;;;;;;15.50;13.00;;;;;;;10.51;85.88;98275.55;225488;1282;23596;-73
2023/05/16 04:15:16;;;;;;;15.20;12.80;;;;;;;10.65;85.17;98272.33;225580;1282;22544;-73
2023/05/16 04:20:34;;;;;;;;;;;;;;;10.73;85.12;98270.74;225618;1268;22528;-73
2023/05/16 04:25:58;;;;;;;12.50;11.20;;;;;;;10.80;84.79;98279.05;225572;1282;22579;-73
2023/05/16 04:31:27;;;;;;;14.20;12.40;;;;;;;10.85;84.68;98286.90;225575;1282;22535;-73
2023/05/16 04:36:40;;;;;;;13.30;10.80;;;;;;;10.95;84.50;98294.44;225534;1282;22571;-73
2023/05/16 04:42:25;;;;;;;11.40;9.90;;;;;;;11.07;84.76;98296.89;225577;1267;22539;-73
2023/05/16 04:48:00;;;;;;;11.00;9.80;;;;;;;11.22;84.53;98310.22;225570;1282;22567;-73
2023/05/16 04:53:10;;;;;;;10.30;9.30;;;;;;;11.41;84.69;98316.24;225527;1282;26303;-72
2023/05/16 04:58:26;;;;;;;10.80;9.60;;;;;;;11.58;84.57;98318.26;225505;1278;22605;-73
2023/05/16 05:04:34;;;;;;;8.90;8.10;;;;;;;11.79;84.55;98316.78;225548;1282;25446;-73
2023/05/16 05:10:22;;;;;;;8.80;7.90;;;;;;;12.07;84.21;98320.23;225600;1282;22647;-72
2023/05/16 05:15:28;;;;;;;9.60;8.40;;;;;;;12.29;83.76;98329.27;225599;1278;22646;-73
2023/05/16 05:20:51;;;;;;;10.70;8.70;;;;;;;12.50;83.61;98329.06;225528;1279;22527;-72
2023/05/16 05:26:11;;;;;;;9.60;8.70;;;;;;;12.70;83.21;98331.11;225554;1282;22557;-73
2023/05/16 05:31:52;;;;;;;7.70;6.90;;;;;;;12.91;83.00;98336.34;225529;1282;22583;-73
2023/05/16 05:37:27;;;;;;;7.60;6.90;;;;;;;13.12;82.46;98337.19;225511;1282;22573;-73
2023/05/16 05:43:18;;;;;;;6.90;6.40;;;;;;;13.31;81.97;98330.70;225423;1280;23015;-73
2023/05/16 05:49:02;;;;;;;7.70;7.10;;;;;;;13.54;81.50;98336.91;225191;1272;22582;-73
2023/05/16 05:54:35;;;;;;;7.70;6.90;;;;;;;13.79;80.91;98331.92;225239;1278;22560;-71
2023/05/16 05:59:43;;;;;;;10.60;7.80;;;;;;;14.04;80.92;98328.98;225123;1278;22528;-72
2023/05/16 06:04:48;;;;;;;8.20;7.30;;;;;;;14.27;80.21;98331.78;224995;1268;23116;-72
2023/05/16 06:10:14;;;;;;;8.00;6.80;;;;;;;14.49;79.77;98329.30;225127;1275;24784;-73
2023/05/16 06:21:09;;;;;;;10.50;7.20;;;;;;;14.88;78.57;98342.44;225016;1278;138460;-74
2023/05/16 06:26:29;;;;;;;9.20;7.00;;;;;;;15.05;77.86;98343.38;224987;1261;138351;-74
2023/05/16 06:31:35;;;;;;;9.50;7.80;;;;;;;15.13;77.50;98348.49;224916;1280;139204;-73
2023/05/16 06:37:10;;;;;;;9.50;7.00;;;;;;;15.24;77.11;98343.71;224904;1262;138365;-73
2023/05/16 06:42:23;;;;;;;7.70;6.90;;;;;;;15.37;76.62;98347.77;224749;1262;138358;-73
2023/05/16 06:47:33;;;;;;;7.30;6.60;;;;;;;15.52;76.17;98346.10;225077;1264;138592;-73
2023/05/16 06:53:04;;;;;;;7.60;6.90;;;;;;;15.69;75.87;98343.38;224907;1265;22536;-72
2023/05/16 06:58:16;;;;;;;7.50;6.80;;;;;;;15.85;75.45;98337.36;224980;1277;22550;-73
2023/05/16 07:03:38;;;;;;;8.60;7.70;;;;;;;16.01;74.81;98340.09;224800;1262;138390;-72
2023/05/16 07:09:09;;;;;;;7.80;7.00;;;;;;;16.16;74.11;98347.63;224691;1283;139248;-73
2023/05/16 07:14:36;;;;;;;7.80;6.70;;;;;;;16.37;74.04;98346.36;224869;1262;138239;-73
2023/05/16 07:19:46;;;;;;;8.20;7.20;;;;;;;16.57;73.31;98340.79;224949;1277;138387;-73
2023/05/16 07:24:59;;;;;;;7.30;6.70;;;;;;;16.77;73.21;98348.72;224921;1278;138351;-73
2023/05/16 07:30:05;;;;;;;7.60;7.00;;;;;;;17.01;73.10;98356.37;225083;1283;138357;-74
2023/05/16 07:35:08;;;;;;;7.90;7.30;;;;;;;17.22;72.41;98366.23;225149;1262;138903;-73
2023/05/16 07:40:19;;;;;;;8.10;7.40;;;;;;;17.37;71.64;98367.02;225306;1278;22527;-73
2023/05/16 07:45:36;;;;;;;8.10;7.40;;;;;;;17.43;70.75;98377.22;225060;1278;137521;-71
2023/05/16 07:50:42;;;;;;;8.90;8.00;;;;;;;17.47;70.73;98389.58;225020;1281;138094;-71
2023/05/16 07:55:45;;;;;;;10.00;8.40;;;;;;;17.66;70.89;98393.33;225090;1264;139791;-71
2023/05/16 08:00:56;;;;;;;8.40;7.50;;;;;;;17.91;70.85;98400.89;225111;1279;138486;-72
2023/05/16 08:06:15;;;;;;;;;;;;;;;;;;;;;
2023/05/16 08:11:38;;;;;;;11.60;6.50;;;;;;;18.48;69.68;98416.14;224986;1282;138276;-73
2023/05/16 08:16:53;;;;;;;7.50;6.90;;;;;;;18.60;67.67;98416.22;225219;1269;138747;-73
2023/05/16 08:22:00;;;;;;;7.00;6.40;;;;;;;18.70;67.46;98412.54;225429;1259;22543;-71
2023/05/16 08:27:06;;;;;;;7.30;6.70;;;;;;;18.78;66.93;98407.34;225172;1275;138084;-72
2023/05/16 08:32:09;;;;;;;7.40;6.60;;;;;;;18.84;66.96;98411.91;224943;1271;138669;-73
2023/05/16 08:37:15;;;;;;;6.40;5.90;;;;;;;18.99;66.54;98425.36;224906;1274;138299;-73
2023/05/16 08:42:24;;;;;;;7.60;6.40;;;;;;;19.19;66.37;98423.86;224935;1263;138418;-69
2023/05/16 08:47:49;;;;;;;7.30;6.40;;;;;;;19.41;66.05;98410.95;224886;1269;138411;-71
2023/05/16 08:53:05;;;;;;;6.90;6.30;;;;;;;19.76;65.71;98413.95;224919;1282;140445;-71
2023/05/16 08:58:10;;;;;;;;;;;;;;;20.10;64.89;98408.73;225038;1265;23158;-75
2023/05/16 09:03:13;;;;;;;7.90;7.20;;;;;;;20.45;64.95;98406.88;224947;1265;124725;-73
2023/05/16 09:08:19;;;;;;;9.30;8.50;;;;;;;20.84;64.35;98404.25;224896;1278;138430;-73
2023/05/16 09:13:25;;;;;;;10.30;9.10;;;;;;;21.15;63.61;98408.49;224730;1262;139163;-73
2023/05/16 09:18:29;;;;;;;11.30;9.90;;;;;;;21.38;62.56;98400.53;224677;1281;138095;-74
2023/05/16 09:23:39;;;;;;;11.20;10.00;;;;;;;21.53;62.23;98401.30;224648;1267;138263;-73
2023/05/16 09:28:56;;;;;;;10.70;9.70;;;;;;;21.76;61.99;98401.90;224867;1275;138290;-74
2023/05/16 09:34:11;;;;;;;11.60;10.50;;;;;;;21.92;61.20;98406.73;225000;1281;25255;-74
2023/05/16 09:39:26;;;;;;;15.40;11.80;;;;;;;21.98;60.96;98411.10;224985;1260;138517;-79
2023/05/16 09:44:34;;;;;;;11.00;10.00;;;;;;;22.05;60.90;98420.84;224942;1260;138116;-72
2023/05/16 09:49:36;;;;;;;11.30;10.20;;;;;;;22.35;61.22;98423.81;225106;1280;138268;-73
2023/05/16 09:54:51;;;;;;;19.00;10.80;;;;;;;22.50;60.13;98417.48;225086;1279;138317;-74
2023/05/16 10:00:00;;;;;;;9.30;8.60;;;;;;;22.59;59.60;98412.70;224992;1272;138373;-73
2023/05/16 10:05:09;;;;;;;9.90;8.90;;;;;;;22.67;58.51;98404.92;225033;1281;137883;-73
2023/05/16 10:10:12;;;;;;;9.40;8.60;;;;;;;22.60;58.24;98399.22;225268;1265;22540;-73
2023/05/16 10:15:20;;;;;;;10.20;9.20;;;;;;;22.74;58.39;98393.69;225013;1269;137509;-74
2023/05/16 10:20:25;;;;;;;5.00;4.50;;;;;;;22.89;57.55;98397.52;224954;1281;137776;-74
2023/05/16 10:25:53;;;;;;;5.00;4.50;;;;;;;22.88;55.69;98397.25;225006;1281;137625;-70
2023/05/16 10:30:56;;;;;;;6.10;5.60;;;;;;;22.91;55.05;98398.31;224943;1271;137592;-70
2023/05/16 10:36:08;;;;;;;6.20;5.40;;;;;;;23.09;54.83;98395.70;224887;1267;137748;-71
2023/05/16 10:41:12;;;;;;;;;;;;;;;23.26;54.37;98397.63;222576;1276;3316555;-72
2023/05/16 10:46:34;;;;;;;6.70;5.50;;;;;;;23.47;53.84;98395.05;225020;1265;22545;-71
2023/05/16 10:51:40;;;;;;;6.30;5.70;;;;;;;23.55;53.04;98395.95;224876;1276;137304;-71
2023/05/16 10:56:42;;;;;;;7.60;6.90;;;;;;;23.69;52.66;98391.47;224896;1265;137393;-72
2023/05/16 11:01:51;;;;;;;6.90;6.40;;;;;;;23.79;52.74;98392.95;224880;1265;137663;-72
2023/05/16 11:06:57;;;;;;;10.80;6.80;;;;;;;23.85;52.25;98382.47;224888;1264;137735;-71
2023/05/16 11:12:08;;;;;;;6.10;5.60;;;;;;;23.78;52.08;98382.42;224870;1281;137796;-72
2023/05/16 11:17:23;;;;;;;7.50;6.80;;;;;;;23.65;52.49;98371.96;224784;1263;137555;-72
2023/05/16 11:22:32;;;;;;;7.60;6.90;;;;;;;23.56;52.78;98363.69;224865;1261;25952;-70
2023/05/16 11:27:56;;;;;;;8.10;7.30;;;;;;;23.42;52.83;98359.39;225001;1280;137174;-71
2023/05/16 11:33:01;;;;;;;9.80;9.00;;;;;;;23.24;53.06;98355.80;224929;1267;137366;-72
2023/05/16 11:38:04;;;;;;;9.80;8.10;;;;;;;23.05;53.49;98360.61;225109;1273;137712;-73
2023/05/16 11:43:07;;;;;;;7.60;7.10;;;;;;;22.99;53.68;98360.02;224994;1275;138032;-73
2023/05/16 11:48:09;;;;;;;8.60;7.90;;;;;;;23.06;54.00;98356.84;225003;1265;137672;-72
2023/05/16 11:53:21;;;;;;;25.00;10.60;;;;;;;23.27;53.82;98356.11;225063;1271;137938;-73
2023/05/16 11:58:23;;;;;;;10.70;7.80;;;;;;;23.23;53.07;98356.02;225168;1264;22640;-73
2023/05/16 12:03:35;;;;;;;10.60;8.20;;;;;;;23.17;53.68;98359.29;224847;1270;137455;-73
2023/05/16 12:08:49;;;;;;;8.80;8.00;;;;;;;23.14;53.79;98356.68;225027;1272;137698;-73
2023/05/16 12:14:18;;;;;;;9.60;8.80;;;;;;;23.21;54.21;98349.77;225071;1273;138790;-73
2023/05/16 12:19:31;;;;;;;9.30;8.50;;;;;;;23.22;53.83;98353.39;225002;1282;137675;-73
2023/05/16 12:24:33;;;;;;;8.60;7.80;;;;;;;23.15;53.41;98347.46;224902;1282;137636;-73
2023/05/16 12:29:36;;;;;;;8.60;7.80;;;;;;;22.98;53.56;98347.95;225009;1275;137759;-74
2023/05/16 12:34:49;;;;;;;9.60;6.70;;;;;;;22.71;53.23;98346.13;225112;1271;22549;-74
2023/05/16 12:40:06;;;;;;;7.40;6.70;;;;;;;22.49;53.65;98337.93;225270;1282;22584;-74
2023/05/16 12:45:16;;;;;;;7.80;6.30;;;;;;;22.45;53.76;98331.80;225158;1282;137288;-73
2023/05/16 12:50:21;;;;;;;7.90;6.50;;;;;;;22.40;53.37;98325.73;224934;1277;137601;-73
2023/05/16 12:55:29;;;;;;;6.60;6.00;;;;;;;22.40;53.64;98325.80;225070;1267;137958;-73
2023/05/16 13:00:48;;;;;;;7.40;6.60;;;;;;;22.34;53.20;98325.88;225104;1276;137598;-73
2023/05/16 13:06:08;;;;;;;8.90;7.10;;;;;;;22.29;53.58;98319.91;224925;1275;137744;-78
2023/05/16 13:11:18;;;;;;;7.80;6.00;;;;;;;22.23;53.66;98326.24;224813;1265;137851;-72
2023/05/16 13:16:21;;;;;;;5.90;5.40;;;;;;;22.00;53.37;98325.70;224791;1265;22690;-73
2023/05/16 13:21:28;;;;;;;5.80;5.20;;;;;;;21.79;53.57;98322.23;224903;1282;137348;-73
2023/05/16 13:26:41;;;;;;;6.20;4.60;;;;;;;21.59;53.60;98324.57;224944;1271;137392;-75
2023/05/16 13:31:51;;;;;;;6.70;5.20;;;;;;;21.35;54.04;98320.98;225046;1276;137671;-73
2023/05/16 13:37:00;;;;;;;7.20;5.70;;;;;;;21.16;54.57;98316.76;224979;1278;137596;-72
2023/05/16 13:42:11;;;;;;;6.20;5.60;;;;;;;20.94;54.92;98308.12;225017;1276;137653;-73
2023/05/16 13:47:24;;;;;;;5.10;4.20;;;;;;;20.72;55.09;98309.80;224839;1267;137614;-74
2023/05/16 13:52:27;;;;;;;4.90;4.40;;;;;;;20.39;55.02;98314.09;225097;1282;22548;-74
2023/05/16 13:57:30;;;;;;;5.60;4.30;;;;;;;20.05;55.28;98316.92;224916;1279;137622;-74
2023/05/16 14:02:42;;;;;;;5.30;4.80;;;;;;;19.72;56.33;98325.36;224874;1263;137465;-73
2023/05/16 14:07:51;;;;;;;6.60;5.50;;;;;;;19.29;57.84;98332.82;224885;1277;25275;-74
2023/05/16 14:12:53;;;;;;;5.50;5.00;;;;;;;18.91;58.99;98344.84;225008;1280;22550;-74
2023/05/16 14:18:06;;;;;;;5.90;5.40;;;;;;;18.53;60.26;98355.54;225151;1278;22553;-75
2023/05/16 14:23:11;;;;;;;6.00;5.40;;;;;;;18.16;61.02;98359.02;225464;1282;24189;-75
2023/05/16 14:28:14;;;;;;;7.10;6.30;;;;;;;17.88;62.34;98360.75;225613;1278;22550;-75
2023/05/16 14:33:22;;;;;;;6.60;6.00;;;;;;;17.57;63.42;98364.95;225701;1279;22527;-74
2023/05/16 14:38:30;;;;;;;7.40;6.60;;;;;;;17.21;64.87;98375.20;225547;1276;22544;-74
2023/05/16 14:43:37;;;;;;;7.30;6.20;;;;;;;16.82;65.99;98374.60;225338;1266;22556;-74
2023/05/16 14:48:43;;;;;;;7.10;6.20;;;;;;;16.49;66.85;98380.83;225517;1280;25287;-74
2023/05/16 14:53:48;;;;;;;11.40;8.80;;;;;;;16.25;67.52;98393.82;225661;1276;22539;-74
2023/05/16 14:58:55;;;;;;;10.00;9.00;;;;;;;16.09;69.03;98399.13;225561;1280;25239;-74
2023/05/16 15:04:03;;;;;;;37.30;33.10;;;;;;;15.97;70.09;98399.00;225467;1282;22652;-74
2023/05/16 15:09:05;;;;;;;10.30;9.30;;;;;;;15.75;70.88;98394.20;225497;1280;22547;-74
2023/05/16 15:14:07;;;;;;;10.70;9.70;;;;;;;15.45;71.61;98393.39;225493;1282;22551;-74
2023/05/16 15:19:13;;;;;;;9.20;8.50;;;;;;;15.19;72.31;98388.58;225617;1282;22563;-75
2023/05/16 15:24:24;;;;;;;12.30;10.20;;;;;;;14.99;73.12;98386.69;225449;1280;22563;-76
2023/05/16 15:29:29;;;;;;;14.90;13.30;;;;;;;14.83;73.92;98375.49;225626;1282;22547;-76
2023/05/16 15:34:51;;;;;;;13.70;12.10;;;;;;;14.74;74.76;98373.15;225663;1275;25243;-75
2023/05/16 15:39:54;;;;;;;15.60;13.90;;;;;;;14.66;75.62;98376.50;225512;1282;22539;-74
2023/05/16 15:45:04;;;;;;;17.70;13.90;;;;;;;14.58;76.30;98369.73;225570;1282;22547;-75
2023/05/16 15:50:08;;;;;;;13.50;12.20;;;;;;;14.50;76.75;98365.05;225571;1281;24276;-76
2023/05/16 15:55:36;;;;;;;12.20;11.00;;;;;;;14.40;77.41;98363.91;225543;1282;22537;-77
2023/05/16 16:00:47;;;;;;;12.70;11.40;;;;;;;14.29;77.63;98350.69;225539;1282;22551;-77
2023/05/16 16:05:51;;;;;;;12.50;11.30;;;;;;;14.20;78.07;98349.66;225636;1281;22555;-77
2023/05/16 16:10:57;;;;;;;11.90;10.70;;;;;;;14.15;78.35;98354.65;225545;1282;25291;-76
2023/05/16 16:16:03;;;;;;;11.70;10.60;;;;;;;14.10;78.73;98353.88;225549;1280;22548;-76
2023/05/16 16:21:06;;;;;;;12.60;11.40;;;;;;;14.04;79.12;98362.62;225559;1280;22577;-77
2023/05/16 16:26:16;;;;;;;14.50;12.80;;;;;;;13.99;79.25;98378.36;225657;1275;22551;-78
2023/05/16 16:31:21;;;;;;;13.00;11.80;;;;;;;13.94;79.60;98378.73;225591;1279;22582;-77
2023/05/16 16:36:36;;;;;;;11.60;10.50;;;;;;;13.88;79.93;98379.49;225557;1279;22567;-81
2023/05/16 16:42:23;;;;;;;;;;;;;;;;;;;;;
2023/05/16 16:47:34;;;;;;;13.10;11.90;;;;;;;13.72;80.77;98394.34;224865;1286;22593;-79
2023/05/16 16:52:46;;;;;;;15.90;13.80;;;;;;;13.71;80.77;98400.63;224911;1288;22618;-79
2023/05/16 16:58:01;;;;;;;13.90;12.50;;;;;;;13.67;81.11;98403.27;224807;1288;22574;-79
2023/05/16 17:03:20;;;;;;;13.60;12.20;;;;;;;13.63;81.37;98407.45;224850;1286;25446;-80
2023/05/16 17:08:32;;;;;;;14.10;12.70;;;;;;;13.59;81.46;98415.73;224892;1288;22554;-81
2023/05/16 17:13:58;;;;;;;15.90;14.40;;;;;;;13.60;81.73;98420.05;224791;1288;22734;-80
2023/05/16 17:19:20;;;;;;;15.80;14.30;;;;;;;13.61;81.87;98420.29;225118;1285;22580;-81
2023/05/16 17:24:32;;;;;;;15.40;14.00;;;;;;;13.60;81.96;98420.83;225184;1285;22585;-80
2023/05/16 17:29:38;;;;;;;16.70;15.00;;;;;;;13.60;82.28;98422.66;225257;1285;25271;-80
2023/05/16 17:34:52;;;;;;;17.70;15.80;;;;;;;13.59;82.43;98425.52;225264;1267;23186;-80
2023/05/16 17:39:56;;;;;;;16.10;14.50;;;;;;;13.56;82.46;98431.71;225274;1285;22572;-82
2023/05/16 17:45:03;;;;;;;14.30;13.00;;;;;;;13.54;82.49;98433.31;225237;1285;25265;-80
2023/05/16 17:50:07;;;;;;;17.00;15.40;;;;;;;13.50;82.74;98433.23;225196;1284;22555;-80
2023/05/16 17:55:13;;;;;;;14.20;12.80;;;;;;;13.46;82.79;98425.27;225342;1282;22630;-81
2023/05/16 18:00:20;;;;;;;20.30;16.10;;;;;;;13.40;82.94;98429.41;225656;1280;22553;-79
2023/05/16 18:05:23;;;;;;;20.30;18.20;;;;;;;13.35;82.98;98434.23;225581;1280;22563;-79
2023/05/16 18:10:29;;;;;;;20.30;18.20;;;;;;;13.30;83.25;98434.55;225591;1276;25239;-79
2023/05/16 18:15:54;;;;;;;20.50;18.50;;;;;;;13.26;83.58;98434.67;225577;1282;22549;-78
2023/05/16 18:21:05;;;;;;;19.10;17.20;;;;;;;13.25;83.62;98437.05;225695;1275;22554;-78
2023/05/16 18:26:14;;;;;;;19.00;17.10;;;;;;;13.20;83.79;98433.79;225568;1282;22563;-79
2023/05/16 18:31:23;;;;;;;20.50;18.40;;;;;;;13.16;83.94;98445.03;225611;1282;22553;-80
2023/05/16 18:36:29;;;;;;;25.60;23.10;;;;;;;13.12;84.16;98446.45;225533;1281;23330;-78
2023/05/16 18:41:42;;;;;;;22.10;19.80;;;;;;;13.10;84.34;98449.89;225594;1282;22563;-78
2023/05/16 18:46:56;;;;;;;24.70;20.70;;;;;;;13.07;84.44;98456.15;225645;1278;22550;-77
2023/05/16 18:52:09;;;;;;;20.80;18.70;;;;;;;13.06;84.77;98464.23;225608;1279;22553;-78
2023/05/16 18:57:33;;;;;;;27.60;24.00;;;;;;;13.04;84.76;98466.79;225729;1278;22559;-77
2023/05/16 19:02:40;;;;;;;27.00;24.40;;;;;;;13.03;84.92;98465.48;225605;1278;24271;-77
2023/05/16 19:07:44;;;;;;;26.10;23.50;;;;;;;13.04;85.16;98471.36;225679;1277;22551;-78
2023/05/16 19:13:11;;;;;;;26.40;23.80;;;;;;;13.05;85.26;98473.14;225574;1273;22568;-77
2023/05/16 19:18:18;;;;;;;27.60;24.80;;;;;;;13.05;85.31;98476.70;225481;1276;22574;-77
2023/05/16 19:23:36;;;;;;;28.40;25.40;;;;;;;13.07;85.58;98472.95;225558;1278;24235;-76
2023/05/16 19:28:41;;;;;;;28.90;25.90;;;;;;;13.10;85.76;98470.20;225573;1264;22614;-77
2023/05/16 19:33:45;;;;;;;29.30;26.10;;;;;;;13.13;85.84;98461.51;225503;1277;25385;-77
2023/05/16 19:38:56;;;;;;;24.70;22.10;;;;;;;13.14;85.90;98465.77;225573;1280;22601;-76
2023/05/16 19:43:58;;;;;;;21.90;19.80;;;;;;;13.14;85.86;98462.24;225534;1280;24308;-75
2023/05/16 19:49:13;;;;;;;20.60;18.60;;;;;;;13.10;86.09;98469.10;225559;1267;22546;-75
2023/05/16 19:54:16;;;;;;;19.80;17.70;;;;;;;13.02;86.25;98469.56;225621;1279;24801;-75
2023/05/16 19:59:19;;;;;;;17.10;15.50;;;;;;;12.91;86.48;98473.20;225575;1278;22569;-74
2023/05/16 20:04:21;;;;;;;18.70;17.00;;;;;;;12.80;86.65;98473.76;225552;1277;22556;-73
2023/05/16 20:09:23;;;;;;;17.00;15.50;;;;;;;12.71;86.78;98460.06;225518;1280;22544;-74
2023/05/16 20:14:27;;;;;;;17.40;15.90;;;;;;;12.61;86.92;98458.09;225592;1278;22530;-74
2023/05/16 20:19:30;;;;;;;17.40;15.90;;;;;;;12.52;87.19;98451.92;225551;1275;22533;-75
2023/05/16 20:24:38;;;;;;;14.70;13.30;;;;;;;12.45;87.44;98453.33;225530;1282;22547;-74
2023/05/16 20:29:41;;;;;;;14.20;12.80;;;;;;;12.36;87.78;98464.67;225578;1280;22573;-74
2023/05/16 20:34:44;;;;;;;13.40;12.20;;;;;;;12.27;87.69;98463.27;225615;1278;22720;-74
2023/05/16 20:39:48;;;;;;;14.40;13.20;;;;;;;12.19;87.82;98459.48;225639;1282;22736;-73
2023/05/16 20:44:51;;;;;;;16.40;13.90;;;;;;;12.14;87.94;98454.53;225671;1275;22579;-73
2023/05/16 20:49:53;;;;;;;13.90;12.60;;;;;;;12.10;87.98;98450.55;225575;1280;22551;-73
2023/05/16 20:54:57;;;;;;;15.00;13.60;;;;;;;12.03;87.91;98442.69;225618;1282;22546;-72
2023/05/16 21:00:02;;;;;;;14.60;13.00;;;;;;;11.95;88.02;98441.35;225618;1275;22545;-72
2023/05/16 21:05:05;;;;;;;15.10;13.70;;;;;;;11.89;88.17;98437.31;225560;1280;25279;-73
2023/05/16 21:10:26;;;;;;;14.50;13.10;;;;;;;11.82;88.16;98432.89;225561;1282;22536;-72
2023/05/16 21:15:37;;;;;;;15.30;14.00;;;;;;;11.78;88.45;98434.34;225589;1282;22551;-73
2023/05/16 21:20:45;;;;;;;15.30;13.80;;;;;;;11.75;88.57;98436.61;225693;1278;22543;-72
2023/05/16 21:25:48;;;;;;;15.30;13.60;;;;;;;11.74;88.79;98429.75;225547;1280;22527;-72
2023/05/16 21:30:51;;;;;;;14.60;13.30;;;;;;;11.72;88.96;98426.02;225608;1278;25740;-73
2023/05/16 21:35:59;;;;;;;16.00;14.40;;;;;;;11.70;89.04;98423.06;225565;1280;22571;-73
2023/05/16 21:41:09;;;;;;;17.70;15.90;;;;;;;11.68;88.99;98428.46;225588;1277;22565;-72
2023/05/16 21:46:12;;;;;;;17.10;15.50;;;;;;;11.68;89.19;98430.25;225532;1282;22650;-72
2023/05/16 21:51:21;;;;;;;19.00;17.20;;;;;;;11.69;89.33;98423.41;225616;1282;22566;-72
2023/05/16 21:56:36;;;;;;;17.70;15.90;;;;;;;11.71;89.26;98418.90;225569;1275;22559;-72
2023/05/16 22:01:44;;;;;;;18.20;16.40;;;;;;;11.72;89.40;98417.09;225560;1275;24311;-72
2023/05/16 22:06:48;;;;;;;19.30;17.40;;;;;;;11.74;89.35;98416.19;225481;1282;22536;-71
2023/05/16 22:11:51;;;;;;;22.40;20.20;;;;;;;11.75;89.51;98421.03;225549;1279;22553;-71
2023/05/16 22:17:00;;;;;;;21.50;19.50;;;;;;;11.76;89.50;98423.38;225469;1280;22564;-71
2023/05/16 22:22:09;;;;;;;19.90;18.00;;;;;;;11.76;89.55;98419.84;225441;1282;22553;-70
2023/05/16 22:27:11;;;;;;;22.00;19.70;;;;;;;11.75;89.45;98423.98;225537;1282;24242;-71
2023/05/16 22:32:16;;;;;;;21.60;19.40;;;;;;;11.75;89.68;98426.48;225566;1278;22655;-71
2023/05/16 22:37:18;;;;;;;23.40;21.00;;;;;;;11.74;89.47;98424.86;224981;1281;584512;-72
2023/05/16 22:42:20;;;;;;;22.40;20.20;;;;;;;11.72;89.62;98432.62;225610;1278;23160;-72
2023/05/16 22:47:23;;;;;;;25.50;22.50;;;;;;;11.71;89.67;98432.17;225610;1282;22581;-72
2023/05/16 22:52:30;;;;;;;26.70;23.50;;;;;;;11.69;89.55;98432.34;225427;1282;22539;-71
2023/05/16 22:57:35;;;;;;;28.30;25.60;;;;;;;11.68;89.60;98439.54;225461;1280;22548;-72
2023/05/16 23:02:38;;;;;;;29.40;25.50;;;;;;;11.68;89.71;98443.98;225528;1279;22542;-71
2023/05/16 23:07:43;;;;;;;27.80;24.90;;;;;;;11.69;89.51;98448.86;225552;1279;24893;-72
2023/05/16 23:13:10;;;;;;;26.80;23.90;;;;;;;11.68;89.63;98455.45;225516;1278;22601;-72
2023/05/16 23:18:25;;;;;;;27.80;25.00;;;;;;;11.67;89.62;98456.48;225468;1278;24260;-71
2023/05/16 23:23:29;;;;;;;26.80;24.10;;;;;;;11.64;89.91;98454.15;225594;1278;22648;-72
2023/05/16 23:28:31;;;;;;;25.30;22.70;;;;;;;11.62;89.90;98445.60;225434;1282;22557;-71
2023/05/16 23:33:34;;;;;;;26.90;24.20;;;;;;;11.59;89.94;98445.26;225541;1282;22554;-72
2023/05/16 23:38:37;;;;;;;27.70;24.90;;;;;;;11.55;89.90;98453.42;225465;1279;22549;-71
2023/05/16 23:43:42;;;;;;;30.50;27.30;;;;;;;11.53;89.85;98455.29;225500;1282;24286;-72
2023/05/16 23:48:55;;;;;;;30.40;27.20;;;;;;;11.52;89.90;98463.70;225489;1282;24406;-72
2023/05/16 23:54:03;;;;;;;29.00;26.10;;;;;;;11.52;89.80;98466.89;225500;1282;22529;-71
2023/05/16 23:59:09;;;;;;;31.50;28.10;;;;;;;11.52;89.95;98474.77;225515;1280;22534;-72
